Text Box: All records at near 07:00 local time
Kleivo 1 weather for Jan 2008
Month no. 14
Obs.
Da.
Temp. Dew Point Precip. Wind
Speed
Wind gusts Cloud cover Press. Humidity Wind dir. Sunny OPT
01.01.2008 1,8   1,0 0,0   10 1031,5 65,0 0,0 1 80,0 %
02.01.2008 3,1   1,0 14,0   10 1031,8 69,0 135,0 1 75,0 %
03.01.2008 1,2   0,0 0,0   10 1029,1 52,0 0,0 1 80,0 %
04.01.2008 2,6   0,0 0,0   10 1019,3 46,0 0,0 1 82,5 %
05.01.2008 2,3   7,3 26,0   10 997,6 46,0 112,5 1 57,5 %
06.01.2008 5,2   0,0 24,0   10 995,6 62,0 135,0 1 70,0 %
07.01.2008 4,6   0,0 13,0   10 998,6 82,0 135,0 1 75,0 %
08.01.2008 2,8   0,0 11,0   10 1000,3 92,0 157,5 1 75,0 %
09.01.2008 3,0   0,0 31,0   4 989,8 95,0 202,5 1 47,5 %
10.01.2008 6,7   0,0 34,0   10 990,9 80,0 225,0 1 62,5 %
11.01.2008 6,2   0,0 16,0   10 989,5 84,0 270,0 1 75,0 %
12.01.2008 1,2   0,0 0,0   1 976,3 92,0 45,0   57,5 %
13.01.2008 2,2   0,0 0,0   0 986,1 93,0 0,0   55,0 %
14.01.2008 7,2   9,7 19,0   7 978,3 82,0 112,5 1 57,5 %
15.01.2008 5,9   0,0 5,0   1 963,8 92,0 202,5   60,0 %
16.01.2008 3,6   0,0 0,0   1 957,7 95,0 22,5   60,0 %
17.01.2008 1,6   0,0 0,0   1 977,6 94,0 22,5   57,5 %
18.01.2008 5,1   0,0 7,0   8 980,4 63,0 112,5 1 77,5 %
19.01.2008 4,4   0,0 12,0   1 971,9 86,0 315,0   52,5 %
20.01.2008 6,1   0,0 19,0   4 1004,4 90,0 247,5   57,5 %
21.01.2008 2,8   0,0 34,0   5 995,6 88,0 337,5 1 47,5 %
22.01.2008 2,3   0,0 4,0   10 1011,5 83,0 22,5 1 77,5 %
23.01.2008 4,6   0,0 29,0   2 1013,2 96,0 180,0   45,0 %
24.01.2008 5,9   0,0 9,0   10 983,7 81,0 225,0 1 80,0 %
25.01.2008 5,1   0,0 9,0   1 980,7 92,0 315,0   57,5 %
26.01.2008 4,8   0,0 0,0   0 983,4 87,0 247,5   57,5 %
27.01.2008 0,6   0,0 0,0   3 993,9 93,0 337,5 1 62,5 %
28.01.2008 5,5   0,0 0,0   2 1003,4 95,0 180,0   65,0 %
29.01.2008 6,7   0,0 0,0   1 995,6 96,0 180,0   62,5 %
30.01.2008 0,9   0,0 0,0   1 991,5 94,0 180,0   57,5 %
31.01.2008 5,1   0,0 0,0   1 972,6 92,0 22,5   62,5 %
Avrg/Sum 3,9   19,0 10,2   5,3 993,4 82,5 151,0 17 64,2 %